Terminal Aerodrome Forecast
Issued by NWS Cleveland, OH

Home | Current Version | Previous Version | Graphics & Text | Print | Product List | Glossary On
Versions: 1 2 3 4 5 6 7 8 9 10 11 12 13 14 15 16 17 18 19 20
000
FTUS41 KCLE 240300 AAA
TAFTOL
TAF AMD
KTOL 240350Z 2404/2424 14012G22KT 4SM -SHRA SCT006 OVC012
      TEMPO 2405/2409 OVC006
     FM241000 21015G25KT P6SM VCSH BKN012 OVC020
     FM241600 24028G40KT P6SM OVC025
      TEMPO 2416/2418 3SM -SHRA
     FM242300 24022G32KT P6SM OVC035=

USA.gov is the U.S. government's official web portal to all federal, state and local government web resources and services.